Time;durP1;ratioP1;P1;durP2;ratioP2;P2;SDS_P1;SDS_P2;PMS_P1;PMS_P2;Temp;Humidity;BMP_temperature;BMP_pressure;BME280_temperature;BME280_humidity;BME280_pressure;Samples;Min_cycle;Max_cycle;Signal;HPM_P1;HPM_P2
2021/09/07 00:00:16;;;;;;;27.88;20.20;;;18.30;91.90;;;;;;5093411;28;20504;-61
2021/09/07 00:02:42;;;;;;;23.88;19.00;;;18.30;91.90;;;;;;5092403;28;20398;-62
2021/09/07 00:05:09;;;;;;;27.63;20.15;;;18.30;91.90;;;;;;5092624;28;20023;-61
2021/09/07 00:07:35;;;;;;;27.63;20.77;;;18.20;92.10;;;;;;5093138;28;20114;-62
2021/09/07 00:10:01;;;;;;;26.58;19.67;;;18.20;92.40;;;;;;5071905;28;20107;-61
2021/09/07 00:12:26;;;;;;;24.95;19.95;;;18.20;92.50;;;;;;5092093;28;20039;-61
2021/09/07 00:14:52;;;;;;;23.75;19.17;;;18.20;92.50;;;;;;5092863;28;20024;-61
2021/09/07 00:17:17;;;;;;;22.15;18.45;;;18.20;92.40;;;;;;5074340;28;20044;-62
2021/09/07 00:19:43;;;;;;;20.70;17.63;;;18.20;92.50;;;;;;5089887;28;20491;-62
2021/09/07 00:22:09;;;;;;;25.33;17.95;;;18.20;92.50;;;;;;5091979;28;20425;-61
2021/09/07 00:24:34;;;;;;;27.27;19.95;;;18.20;92.50;;;;;;5085813;28;20032;-62
2021/09/07 00:27:00;;;;;;;25.92;18.67;;;18.20;92.50;;;;;;5092244;28;20040;-61
2021/09/07 00:29:26;;;;;;;23.05;18.02;;;18.20;92.60;;;;;;5092809;28;20119;-61
2021/09/07 00:31:52;;;;;;;23.38;17.92;;;18.10;92.60;;;;;;5092144;28;20038;-61
2021/09/07 00:34:18;;;;;;;22.88;18.15;;;18.20;92.60;;;;;;5091933;28;20395;-62
2021/09/07 00:36:44;;;;;;;19.38;17.08;;;18.20;92.60;;;;;;5090940;28;20125;-61
2021/09/07 00:39:11;;;;;;;22.98;17.80;;;18.10;92.60;;;;;;5091961;28;20047;-61
2021/09/07 00:41:38;;;;;;;25.63;18.45;;;18.20;92.30;;;;;;5091623;28;20398;-62
2021/09/07 00:44:19;;;;;;;24.00;18.50;;;18.20;92.50;;;;;;5091788;28;20032;-61
2021/09/07 00:46:50;;;;;;;23.77;17.23;;;18.10;92.60;;;;;;5091685;28;20495;-60
2021/09/07 00:49:16;;;;;;;23.90;18.38;;;18.00;92.60;;;;;;5089552;28;20043;-62
2021/09/07 00:51:43;;;;;;;20.40;17.40;;;18.00;92.60;;;;;;5091279;28;20082;-61
2021/09/07 00:54:09;;;;;;;20.17;17.27;;;18.00;92.70;;;;;;5083919;28;20028;-60
2021/09/07 00:56:35;;;;;;;22.95;17.90;;;18.00;92.90;;;;;;5091092;28;20024;-60
2021/09/07 00:59:02;;;;;;;21.48;17.20;;;18.00;92.90;;;;;;5090633;28;20059;-60
2021/09/07 01:01:27;;;;;;;20.98;17.17;;;18.00;92.70;;;;;;5086748;28;20636;-60
2021/09/07 01:03:53;;;;;;;23.98;17.92;;;17.90;92.90;;;;;;5088614;28;20063;-60
2021/09/07 01:06:19;;;;;;;23.10;16.08;;;18.00;92.90;;;;;;5087633;28;20146;-60
2021/09/07 01:08:47;;;;;;;21.42;16.80;;;18.00;92.90;;;;;;5087626;28;20071;-61
2021/09/07 01:11:14;;;;;;;19.83;16.88;;;18.10;92.90;;;;;;5087171;28;20099;-61
2021/09/07 01:13:40;;;;;;;22.60;17.50;;;18.00;92.80;;;;;;5088643;28;20033;-62
2021/09/07 01:16:06;;;;;;;21.65;17.58;;;18.00;92.40;;;;;;5088234;28;20510;-60
2021/09/07 01:18:32;;;;;;;19.63;16.85;;;18.00;92.30;;;;;;5094803;28;20028;-60
2021/09/07 01:20:57;;;;;;;21.35;17.45;;;17.90;92.70;;;;;;5091930;28;20029;-62
2021/09/07 01:23:23;;;;;;;22.83;17.75;;;17.70;92.90;;;;;;5091905;28;20060;-61
2021/09/07 01:25:48;;;;;;;21.52;16.95;;;17.80;92.90;;;;;;5096280;28;20111;-60
2021/09/07 01:28:16;;;;;;;20.75;17.25;;;17.80;93.00;;;;;;5095624;28;20036;-61
2021/09/07 01:30:42;;;;;;;29.73;22.77;;;17.80;93.00;;;;;;5060744;28;20036;-61
2021/09/07 01:33:09;;;;;;;27.08;19.92;;;17.90;92.90;;;;;;5095691;28;20508;-60
2021/09/07 01:35:34;;;;;;;23.17;17.83;;;17.80;92.80;;;;;;5096027;28;20047;-61
2021/09/07 01:38:00;;;;;;;19.30;16.65;;;17.80;92.90;;;;;;5096306;28;20028;-60
2021/09/07 01:40:25;;;;;;;19.77;16.73;;;17.80;93.00;;;;;;5088258;28;20391;-61
2021/09/07 01:42:51;;;;;;;20.75;18.08;;;17.90;92.90;;;;;;5096061;28;20097;-61
2021/09/07 01:45:17;;;;;;;19.45;16.48;;;17.80;92.80;;;;;;5096786;28;20067;-62
2021/09/07 01:47:43;;;;;;;21.33;16.50;;;17.80;92.90;;;;;;5096731;28;20043;-62
2021/09/07 01:50:10;;;;;;;21.83;18.27;;;17.80;92.90;;;;;;5078150;28;20111;-61
2021/09/07 01:52:35;;;;;;;20.02;16.02;;;17.60;92.80;;;;;;5095420;28;20036;-62
2021/09/07 01:55:01;;;;;;;21.60;16.65;;;17.70;92.80;;;;;;5095435;28;20031;-62
2021/09/07 01:57:26;;;;;;;20.70;16.40;;;17.80;93.00;;;;;;5077536;28;20111;-61
2021/09/07 01:59:53;;;;;;;20.95;16.50;;;17.80;93.20;;;;;;5095708;28;20066;-61
2021/09/07 02:02:18;;;;;;;17.98;16.08;;;17.70;93.20;;;;;;5095137;28;20471;-61
2021/09/07 02:04:46;;;;;;;19.98;17.35;;;17.70;93.50;;;;;;5076949;28;20081;-60
2021/09/07 02:07:13;;;;;;;18.83;16.70;;;17.70;93.70;;;;;;5095429;28;20039;-61
2021/09/07 02:09:39;;;;;;;24.63;19.05;;;17.70;93.80;;;;;;5095997;28;20031;-61
2021/09/07 02:12:06;;;;;;;20.58;16.75;;;17.70;93.70;;;;;;5095547;28;20020;-61
2021/09/07 02:14:32;;;;;;;29.55;19.98;;;17.60;93.60;;;;;;5095271;28;20102;-62
2021/09/07 02:16:57;;;;;;;21.20;17.35;;;17.60;93.00;;;;;;5094793;28;20521;-61
2021/09/07 02:19:23;;;;;;;22.80;18.50;;;17.60;93.10;;;;;;5092475;28;20047;-61
2021/09/07 02:21:49;;;;;;;23.45;18.05;;;17.40;93.40;;;;;;5074261;28;20040;-60
2021/09/07 02:24:14;;;;;;;25.70;18.13;;;17.30;93.60;;;;;;5083610;28;20123;-61
2021/09/07 02:26:41;;;;;;;24.08;17.30;;;17.30;93.50;;;;;;5094716;28;20038;-61
2021/09/07 02:29:07;;;;;;;21.00;17.20;;;17.30;93.50;;;;;;5094903;28;20024;-60
2021/09/07 02:31:33;;;;;;;20.83;17.00;;;17.30;93.50;;;;;;5076830;28;20111;-60
2021/09/07 02:33:59;;;;;;;26.13;18.50;;;17.20;93.50;;;;;;5094806;28;20475;-61
2021/09/07 02:36:26;;;;;;;23.27;16.90;;;17.10;93.60;;;;;;5077165;28;20036;-61
2021/09/07 02:38:55;;;;;;;21.85;17.67;;;17.00;93.80;;;;;;5073364;28;20067;-62
2021/09/07 02:41:21;;;;;;;23.83;17.85;;;17.20;93.60;;;;;;5094201;28;20032;-61
2021/09/07 02:43:47;;;;;;;22.08;17.77;;;17.20;93.60;;;;;;5094472;28;20067;-61
2021/09/07 02:46:13;;;;;;;20.67;16.85;;;17.20;93.60;;;;;;5076368;28;20375;-62
2021/09/07 02:48:38;;;;;;;21.52;16.88;;;17.30;93.70;;;;;;5094326;28;20060;-62
2021/09/07 02:51:04;;;;;;;21.23;16.70;;;17.20;93.70;;;;;;5076628;28;20500;-61
2021/09/07 02:53:30;;;;;;;19.65;16.13;;;17.20;93.70;;;;;;5093886;28;20039;-60
2021/09/07 02:55:55;;;;;;;20.75;16.83;;;17.30;93.80;;;;;;5094306;28;20483;-61
2021/09/07 02:58:21;;;;;;;22.85;17.15;;;17.30;93.90;;;;;;5094500;28;20043;-62
2021/09/07 03:00:46;;;;;;;22.23;18.02;;;17.30;93.90;;;;;;5094277;28;20032;-61
2021/09/07 03:03:12;;;;;;;22.55;16.08;;;17.30;93.90;;;;;;5093879;28;20143;-61
2021/09/07 03:05:38;;;;;;;21.08;16.67;;;17.40;93.90;;;;;;5094556;28;20049;-61
2021/09/07 03:08:04;;;;;;;23.63;18.52;;;17.30;93.90;;;;;;5094072;28;20039;-61
2021/09/07 03:10:30;;;;;;;21.38;17.58;;;17.30;94.20;;;;;;5094369;28;20036;-62
2021/09/07 03:12:55;;;;;;;22.25;17.50;;;17.30;94.50;;;;;;5093773;28;20426;-58
2021/09/07 03:15:22;;;;;;;22.75;17.58;;;17.20;94.80;;;;;;5093981;28;20028;-62
2021/09/07 03:17:48;;;;;;;23.50;17.83;;;17.20;94.70;;;;;;5093723;28;20032;-60
2021/09/07 03:20:14;;;;;;;20.48;17.10;;;17.20;94.70;;;;;;5094168;28;20082;-59
2021/09/07 03:22:39;;;;;;;19.60;17.30;;;17.20;94.60;;;;;;5093462;28;20028;-61
2021/09/07 03:25:05;;;;;;;22.52;18.30;;;17.20;94.60;;;;;;5093804;28;20043;-60
2021/09/07 03:27:31;;;;;;;24.70;18.65;;;17.30;94.50;;;;;;5093939;28;20031;-60
2021/09/07 03:29:56;;;;;;;22.67;17.38;;;17.20;94.50;;;;;;5093518;28;20024;-62
2021/09/07 03:32:22;;;;;;;20.45;16.70;;;17.20;94.40;;;;;;5075509;28;20044;-62
2021/09/07 03:34:48;;;;;;;18.58;16.05;;;17.20;94.50;;;;;;5093492;28;20024;-62
2021/09/07 03:37:13;;;;;;;26.88;19.20;;;17.20;94.50;;;;;;5093454;28;20498;-61
2021/09/07 03:39:39;;;;;;;23.85;16.83;;;17.20;94.70;;;;;;5093035;28;20020;-60
2021/09/07 03:42:04;;;;;;;20.75;17.48;;;17.20;94.90;;;;;;5093036;28;20036;-60
2021/09/07 03:44:30;;;;;;;28.17;17.13;;;17.20;95.00;;;;;;5074971;28;20040;-61
2021/09/07 03:46:55;;;;;;;22.75;16.92;;;17.20;94.90;;;;;;5093321;28;20131;-61
2021/09/07 03:49:21;;;;;;;22.05;18.73;;;17.20;94.90;;;;;;5093521;28;20090;-61
2021/09/07 03:51:47;;;;;;;21.88;17.50;;;17.20;94.90;;;;;;5093775;28;20056;-61
2021/09/07 03:54:12;;;;;;;21.35;16.65;;;17.20;95.00;;;;;;5093348;28;20036;-61
2021/09/07 03:56:38;;;;;;;19.98;16.65;;;17.30;94.30;;;;;;5093186;28;20574;-61
2021/09/07 03:59:04;;;;;;;19.48;16.88;;;17.30;94.20;;;;;;5093250;28;20059;-60
2021/09/07 04:01:30;;;;;;;19.50;16.77;;;17.20;94.50;;;;;;5093053;28;20056;-61
2021/09/07 04:03:55;;;;;;;23.73;18.38;;;17.20;94.70;;;;;;5092245;28;20517;-61
2021/09/07 04:06:21;;;;;;;21.40;17.52;;;17.20;94.60;;;;;;5093131;28;20032;-62
2021/09/07 04:08:46;;;;;;;22.85;17.92;;;17.10;94.40;;;;;;5092936;28;20372;-62
2021/09/07 04:11:12;;;;;;;21.90;17.25;;;17.20;94.40;;;;;;5092959;28;20028;-63
2021/09/07 04:13:38;;;;;;;21.60;16.75;;;17.20;94.50;;;;;;5092729;28;20395;-61
2021/09/07 04:16:04;;;;;;;23.98;16.17;;;17.20;94.60;;;;;;5092734;28;20093;-61
2021/09/07 04:18:30;;;;;;;20.73;17.17;;;17.30;94.60;;;;;;5074823;28;20115;-60
2021/09/07 04:20:55;;;;;;;21.77;17.02;;;17.30;94.70;;;;;;5078849;28;20505;-62
2021/09/07 04:23:21;;;;;;;23.40;16.73;;;17.30;95.00;;;;;;5073645;28;20499;-60
2021/09/07 04:25:48;;;;;;;22.42;17.85;;;17.30;95.10;;;;;;5092957;28;20036;-61
2021/09/07 04:28:14;;;;;;;19.60;15.75;;;17.30;95.10;;;;;;5093164;28;20032;-59
2021/09/07 04:30:40;;;;;;;20.15;15.38;;;17.30;95.20;;;;;;5092538;28;20024;-60
2021/09/07 04:33:05;;;;;;;20.63;16.50;;;17.30;95.20;;;;;;5092243;28;20031;-61
2021/09/07 04:35:31;;;;;;;19.50;15.75;;;17.40;95.20;;;;;;5093078;28;20054;-60
2021/09/07 04:37:57;;;;;;;17.65;15.00;;;17.30;95.20;;;;;;5092436;28;20058;-61
2021/09/07 04:40:22;;;;;;;20.70;15.90;;;17.30;95.20;;;;;;5092997;28;20181;-62
2021/09/07 04:42:48;;;;;;;20.70;16.10;;;17.30;95.30;;;;;;5092441;28;20054;-62
2021/09/07 04:45:14;;;;;;;20.90;16.38;;;17.30;95.30;;;;;;5092102;28;20132;-61
2021/09/07 04:47:39;;;;;;;19.58;15.43;;;17.30;95.30;;;;;;5093105;28;20438;-62
2021/09/07 04:50:06;;;;;;;20.00;15.60;;;17.40;95.40;;;;;;5092137;28;20038;-62
2021/09/07 04:52:31;;;;;;;21.98;17.10;;;17.50;95.30;;;;;;5091934;28;20067;-62
2021/09/07 04:54:57;;;;;;;20.33;16.63;;;17.50;95.20;;;;;;5093010;28;20024;-61
2021/09/07 04:57:22;;;;;;;19.88;16.48;;;17.40;95.10;;;;;;5092856;28;20118;-61
2021/09/07 04:59:48;;;;;;;23.63;18.42;;;17.40;95.00;;;;;;5092674;28;20032;-61
2021/09/07 05:02:13;;;;;;;23.30;18.05;;;17.40;94.90;;;;;;5092374;28;20483;-61
2021/09/07 05:04:39;;;;;;;22.33;17.25;;;17.30;94.90;;;;;;5092431;28;20035;-62
2021/09/07 05:07:04;;;;;;;22.58;17.08;;;17.20;95.20;;;;;;5092907;28;20024;-61
2021/09/07 05:09:30;;;;;;;25.58;16.95;;;17.20;95.20;;;;;;5092423;28;20028;-62
2021/09/07 05:11:55;;;;;;;22.48;17.75;;;17.30;95.20;;;;;;5091870;28;20043;-61
2021/09/07 05:14:21;;;;;;;24.63;18.35;;;17.30;95.30;;;;;;5092119;28;20050;-60
2021/09/07 05:16:47;;;;;;;23.77;16.45;;;17.30;95.10;;;;;;5091963;28;20511;-61
2021/09/07 05:19:15;;;;;;;20.95;17.23;;;17.30;94.90;;;;;;5092021;28;20028;-60
2021/09/07 05:21:41;;;;;;;21.75;16.25;;;17.30;95.00;;;;;;5070702;28;20036;-61
2021/09/07 05:24:06;;;;;;;18.63;16.48;;;17.20;94.90;;;;;;5080825;28;20036;-60
2021/09/07 05:26:32;;;;;;;20.50;16.63;;;17.20;95.10;;;;;;5092426;28;20496;-61
2021/09/07 05:28:57;;;;;;;23.55;16.00;;;17.20;94.60;;;;;;5092194;28;20028;-62
2021/09/07 05:31:23;;;;;;;21.65;17.45;;;17.20;94.90;;;;;;5092396;28;20024;-61
2021/09/07 05:33:48;;;;;;;26.40;17.13;;;17.30;94.50;;;;;;5091464;28;20431;-61
2021/09/07 05:36:14;;;;;;;18.88;16.13;;;17.30;94.50;;;;;;5092878;28;20039;-62
2021/09/07 05:38:40;;;;;;;20.75;15.57;;;17.30;94.70;;;;;;5092347;28;20054;-62
2021/09/07 05:41:05;;;;;;;20.67;17.85;;;17.30;94.70;;;;;;5092957;28;20039;-61
2021/09/07 05:43:31;;;;;;;19.52;15.75;;;17.40;94.70;;;;;;5091843;28;20131;-62
2021/09/07 05:45:56;;;;;;;23.00;17.00;;;17.40;94.80;;;;;;5074206;28;20384;-63
2021/09/07 05:48:22;;;;;;;22.60;16.55;;;17.40;94.50;;;;;;5074333;28;20025;-60
2021/09/07 05:50:48;;;;;;;18.02;15.02;;;17.50;94.60;;;;;;5092052;28;20040;-62
2021/09/07 05:53:13;;;;;;;19.95;16.75;;;17.50;94.50;;;;;;5092569;28;20036;-62
2021/09/07 05:55:39;;;;;;;17.92;15.05;;;17.50;94.60;;;;;;5092351;28;20119;-62
2021/09/07 05:58:04;;;;;;;26.02;16.65;;;17.50;94.60;;;;;;5092228;28;20039;-62
2021/09/07 06:00:31;;;;;;;21.02;17.33;;;17.60;94.50;;;;;;5091894;28;20113;-61
2021/09/07 06:02:58;;;;;;;18.17;15.93;;;17.60;94.60;;;;;;5094285;28;20098;-59
2021/09/07 06:05:24;;;;;;;21.95;16.05;;;17.70;94.60;;;;;;5096085;28;20060;-61
2021/09/07 06:07:50;;;;;;;21.95;16.83;;;17.80;94.50;;;;;;5095741;28;20074;-62
2021/09/07 06:10:15;;;;;;;19.73;16.17;;;17.90;94.20;;;;;;5095439;28;20154;-61
2021/09/07 06:12:41;;;;;;;20.42;15.73;;;17.90;94.20;;;;;;5095277;28;20617;-61
2021/09/07 06:15:07;;;;;;;18.70;14.63;;;18.00;94.10;;;;;;5095306;28;20371;-62
2021/09/07 06:17:33;;;;;;;22.80;18.00;;;18.10;94.00;;;;;;5095442;28;20039;-61
2021/09/07 06:19:59;;;;;;;23.90;18.88;;;18.10;93.90;;;;;;5089177;28;20037;-61
2021/09/07 06:22:24;;;;;;;22.92;16.98;;;18.20;93.70;;;;;;5074437;28;20051;-61
2021/09/07 06:24:52;;;;;;;22.95;16.52;;;18.20;93.70;;;;;;5088997;28;20043;-60
2021/09/07 06:27:18;;;;;;;30.65;25.35;;;18.20;93.70;;;;;;5095128;28;20036;-60
2021/09/07 06:29:43;;;;;;;23.02;19.67;;;18.20;93.40;;;;;;5094968;28;20039;-62
2021/09/07 06:32:09;;;;;;;23.35;17.27;;;18.30;93.50;;;;;;5095417;28;20028;-62
2021/09/07 06:34:35;;;;;;;23.52;17.75;;;18.30;93.70;;;;;;5095030;28;20068;-61
2021/09/07 06:37:02;;;;;;;24.58;17.77;;;18.40;93.60;;;;;;5095491;28;20035;-62
2021/09/07 06:39:28;;;;;;;22.08;16.88;;;18.40;93.20;;;;;;5095232;28;20078;-61
2021/09/07 06:41:53;;;;;;;23.63;18.05;;;18.40;93.30;;;;;;5095002;28;20426;-61
2021/09/07 06:44:19;;;;;;;25.90;17.40;;;18.40;93.40;;;;;;5094563;28;20067;-61
2021/09/07 06:46:47;;;;;;;23.10;17.58;;;18.40;93.50;;;;;;5095103;28;20043;-61
2021/09/07 06:49:12;;;;;;;28.63;18.55;;;18.50;93.30;;;;;;5095011;28;20059;-61
2021/09/07 06:51:38;;;;;;;22.13;16.50;;;18.40;93.20;;;;;;5094769;28;20060;-61
2021/09/07 06:54:04;;;;;;;23.05;16.40;;;18.40;93.50;;;;;;5094864;28;20062;-59
2021/09/07 06:56:29;;;;;;;20.45;16.77;;;18.50;93.30;;;;;;5094786;28;20036;-62
2021/09/07 06:58:55;;;;;;;22.35;16.23;;;18.60;93.00;;;;;;5095264;28;20035;-62
2021/09/07 07:01:20;;;;;;;21.20;17.25;;;18.70;93.10;;;;;;5094761;28;20028;-63
2021/09/07 07:03:46;;;;;;;20.77;17.70;;;18.80;93.10;;;;;;5094041;28;20510;-62
2021/09/07 07:06:11;;;;;;;18.65;16.02;;;18.70;93.20;;;;;;5094926;28;20032;-62
2021/09/07 07:08:37;;;;;;;18.00;15.38;;;18.80;93.10;;;;;;5094532;28;20129;-63
2021/09/07 07:11:03;;;;;;;21.88;16.75;;;18.90;93.10;;;;;;5094439;28;20063;-62
2021/09/07 07:13:28;;;;;;;26.33;18.33;;;19.00;93.00;;;;;;5093390;28;20028;-62
2021/09/07 07:15:54;;;;;;;21.10;17.00;;;19.00;93.10;;;;;;5094382;28;20537;-62
2021/09/07 07:18:19;;;;;;;21.17;16.95;;;19.20;92.80;;;;;;5094102;28;20484;-62
2021/09/07 07:20:48;;;;;;;22.48;17.15;;;19.10;92.90;;;;;;5081244;28;20043;-63
2021/09/07 07:23:13;;;;;;;22.90;17.40;;;19.20;92.70;;;;;;5073724;28;20041;-63
2021/09/07 07:25:39;;;;;;;19.67;16.63;;;19.20;92.40;;;;;;5094596;28;20035;-62
2021/09/07 07:28:05;;;;;;;23.75;17.50;;;19.30;92.40;;;;;;5094181;28;20075;-62
2021/09/07 07:30:32;;;;;;;21.40;17.55;;;19.30;92.60;;;;;;5094090;28;20461;-61
2021/09/07 07:32:57;;;;;;;19.10;16.30;;;19.20;92.40;;;;;;5093415;28;20040;-62
2021/09/07 07:35:23;;;;;;;22.33;16.17;;;19.30;92.40;;;;;;5093840;28;20122;-61
2021/09/07 07:37:49;;;;;;;25.27;18.50;;;19.40;92.40;;;;;;5093742;28;20028;-61
2021/09/07 07:40:14;;;;;;;27.08;17.48;;;19.40;92.10;;;;;;5093853;28;20487;-62
2021/09/07 07:42:40;;;;;;;19.08;16.98;;;19.50;91.70;;;;;;5092910;28;20036;-61
2021/09/07 07:45:06;;;;;;;22.25;19.42;;;19.50;91.90;;;;;;5075383;28;20020;-62
2021/09/07 07:47:31;;;;;;;20.85;16.33;;;19.40;92.00;;;;;;5093797;28;20505;-62
2021/09/07 07:49:58;;;;;;;26.95;19.85;;;19.40;92.20;;;;;;5093769;28;20041;-61
2021/09/07 07:52:24;;;;;;;27.70;19.65;;;19.30;92.20;;;;;;5093614;28;20071;-62
2021/09/07 07:54:50;;;;;;;27.33;18.90;;;19.50;92.10;;;;;;5075561;28;20115;-62
2021/09/07 07:57:17;;;;;;;25.80;19.15;;;19.60;91.70;;;;;;5093584;28;20063;-62
2021/09/07 07:59:43;;;;;;;25.90;17.95;;;19.70;91.70;;;;;;5093858;28;20036;-63
2021/09/07 08:02:09;;;;;;;27.58;19.23;;;19.80;91.60;;;;;;5093129;28;20039;-61
2021/09/07 08:04:34;;;;;;;26.63;19.10;;;19.80;91.40;;;;;;5093279;28;20036;-62
2021/09/07 08:07:00;;;;;;;27.30;19.48;;;19.80;91.10;;;;;;5093728;28;20040;-62
2021/09/07 08:09:25;;;;;;;28.15;18.15;;;19.70;91.30;;;;;;5093303;28;20361;-62
2021/09/07 08:11:51;;;;;;;25.15;19.48;;;19.80;91.60;;;;;;5093113;28;20085;-63
2021/09/07 08:14:17;;;;;;;24.85;18.80;;;19.60;91.80;;;;;;5076122;28;20028;-62
2021/09/07 08:16:42;;;;;;;21.50;18.52;;;19.40;92.20;;;;;;5076463;28;20032;-62
2021/09/07 08:19:08;;;;;;;22.63;17.90;;;19.70;92.00;;;;;;5092973;28;20035;-60
2021/09/07 08:21:34;;;;;;;26.30;18.33;;;19.70;91.80;;;;;;5073524;28;20035;-62
2021/09/07 08:23:59;;;;;;;25.60;19.88;;;19.80;91.70;;;;;;5079585;28;20032;-62
2021/09/07 08:26:25;;;;;;;20.85;16.98;;;19.90;91.50;;;;;;5093609;28;20193;-62
2021/09/07 08:28:50;;;;;;;23.83;18.40;;;19.90;91.50;;;;;;5093267;28;20119;-62
2021/09/07 08:31:16;;;;;;;22.63;17.98;;;20.20;91.00;;;;;;5093284;28;20032;-61
2021/09/07 08:33:42;;;;;;;24.23;18.23;;;20.20;90.90;;;;;;5092894;28;20078;-61
2021/09/07 08:36:08;;;;;;;27.30;18.02;;;20.30;90.80;;;;;;5075061;28;20131;-62
2021/09/07 08:38:33;;;;;;;24.33;17.80;;;19.90;91.60;;;;;;5075053;28;20044;-62
2021/09/07 08:40:59;;;;;;;23.83;17.90;;;20.20;91.20;;;;;;5074693;28;20051;-62
2021/09/07 08:43:26;;;;;;;25.00;18.75;;;20.40;91.10;;;;;;5092649;28;20491;-62
2021/09/07 08:45:56;;;;;;;23.17;18.10;;;20.50;90.70;;;;;;5092928;28;20028;-61
2021/09/07 08:48:25;;;;;;;24.20;18.38;;;20.50;90.40;;;;;;5092961;28;20115;-61
2021/09/07 08:50:51;;;;;;;25.40;18.05;;;20.50;89.60;;;;;;5092558;28;20032;-62
2021/09/07 08:53:17;;;;;;;23.27;17.95;;;20.60;89.50;;;;;;5092093;28;20064;-62
2021/09/07 08:55:42;;;;;;;26.45;16.83;;;20.70;88.00;;;;;;5092491;28;20051;-62
2021/09/07 08:58:09;;;;;;;24.33;17.98;;;20.70;88.20;;;;;;5074630;28;20036;-62
2021/09/07 09:00:34;;;;;;;22.90;16.92;;;20.50;88.60;;;;;;5092519;28;20464;-62
2021/09/07 09:03:12;;;;;;;24.42;18.10;;;20.60;88.20;;;;;;5091657;28;20040;-62
2021/09/07 09:05:43;;;;;;;19.55;16.63;;;20.70;88.00;;;;;;5092695;28;20038;-61
2021/09/07 09:08:13;;;;;;;22.60;16.88;;;20.90;86.30;;;;;;5093550;28;20024;-63
2021/09/07 09:10:40;;;;;;;22.10;17.08;;;20.80;87.40;;;;;;5074814;28;20483;-62
2021/09/07 09:13:11;;;;;;;23.27;18.17;;;21.00;87.00;;;;;;5092014;28;20088;-62
2021/09/07 09:15:37;;;;;;;21.42;16.35;;;21.00;87.50;;;;;;5083905;28;20028;-62
2021/09/07 09:18:12;;;;;;;20.42;15.98;;;21.10;86.90;;;;;;5092426;28;20071;-62
2021/09/07 09:20:40;;;;;;;20.83;17.30;;;21.20;87.10;;;;;;5080543;28;20111;-62
2021/09/07 09:23:08;;;;;;;21.35;16.75;;;21.00;87.30;;;;;;5072451;28;20021;-63
2021/09/07 09:25:41;;;;;;;19.58;16.45;;;21.10;87.00;;;;;;5092093;28;20032;-60
2021/09/07 09:28:15;;;;;;;25.33;18.15;;;20.90;86.50;;;;;;5092570;28;20023;-61
2021/09/07 09:30:56;;;;;;;22.98;17.38;;;20.70;85.90;;;;;;5092736;28;20063;-61
2021/09/07 09:33:28;;;;;;;23.27;16.33;;;20.80;86.80;;;;;;5092068;28;20035;-62
2021/09/07 09:35:57;;;;;;;22.70;17.73;;;20.70;87.00;;;;;;5092680;28;20051;-62
2021/09/07 09:38:28;;;;;;;24.55;18.98;;;20.90;87.30;;;;;;5096090;28;20040;-62
2021/09/07 09:40:57;;;;;;;20.55;16.98;;;20.90;86.40;;;;;;5096100;28;20028;-61
2021/09/07 09:43:32;;;;;;;22.45;16.45;;;20.90;86.50;;;;;;5095698;28;20082;-61
2021/09/07 09:46:14;;;;;;;25.17;17.10;;;21.00;86.70;;;;;;5096229;28;20032;-62
2021/09/07 09:48:40;;;;;;;20.42;16.13;;;21.20;85.40;;;;;;5096287;28;20064;-61
2021/09/07 09:51:06;;;;;;;22.83;18.17;;;21.10;85.20;;;;;;5095845;28;20036;-61
2021/09/07 09:53:33;;;;;;;20.33;16.58;;;21.30;84.70;;;;;;5095957;28;20042;-62
2021/09/07 09:56:00;;;;;;;21.05;17.80;;;21.30;85.00;;;;;;5096412;28;20562;-60
2021/09/07 09:58:26;;;;;;;19.67;16.23;;;21.40;85.20;;;;;;5096707;28;20087;-62
2021/09/07 10:00:52;;;;;;;21.52;16.40;;;21.50;85.60;;;;;;5088516;28;20087;-62
2021/09/07 10:03:18;;;;;;;20.70;15.63;;;21.60;85.20;;;;;;5080383;28;20028;-61
2021/09/07 10:05:46;;;;;;;18.75;14.02;;;21.80;86.00;;;;;;5077384;28;20050;-62
2021/09/07 10:08:14;;;;;;;19.85;15.63;;;22.10;83.50;;;;;;5077154;28;20020;-60
2021/09/07 10:11:01;;;;;;;18.67;15.60;;;22.40;82.90;;;;;;5094781;28;20028;-61
2021/09/07 10:13:28;;;;;;;20.33;16.58;;;22.30;82.80;;;;;;5095816;28;20510;-61
2021/09/07 10:16:18;;;;;;;23.25;17.13;;;22.40;81.40;;;;;;5096105;28;20058;-61
2021/09/07 10:18:48;;;;;;;19.05;15.98;;;22.40;81.70;;;;;;5095182;28;20048;-59
2021/09/07 10:26:17;;;;;;;18.30;16.25;;;22.80;82.50;;;;;;5095663;28;20043;-61
2021/09/07 10:28:47;;;;;;;20.05;16.17;;;23.10;81.60;;;;;;5096338;28;20024;-61
2021/09/07 10:31:22;;;;;;;18.92;15.98;;;23.10;81.30;;;;;;5077163;28;20032;-60
2021/09/07 10:33:54;;;;;;;19.00;15.88;;;23.00;81.40;;;;;;5095734;28;20038;-60
2021/09/07 10:36:22;;;;;;;20.85;15.85;;;23.00;81.70;;;;;;5095997;28;20027;-62
2021/09/07 10:39:03;;;;;;;22.23;16.75;;;23.00;81.40;;;;;;5076315;28;20630;-62
2021/09/07 10:41:34;;;;;;;21.67;17.42;;;23.00;80.90;;;;;;5087590;28;20040;-61
2021/09/07 10:44:02;;;;;;;19.45;16.48;;;23.00;82.30;;;;;;5095666;28;20035;-60
2021/09/07 10:46:48;;;;;;;23.67;18.95;;;23.00;81.80;;;;;;5095837;28;20119;-60
2021/09/07 10:49:32;;;;;;;23.67;18.30;;;23.10;81.70;;;;;;5096055;28;20067;-62
2021/09/07 10:52:21;;;;;;;21.95;17.25;;;23.10;81.10;;;;;;5098608;28;20023;-63
2021/09/07 10:54:52;;;;;;;22.17;18.38;;;23.20;81.80;;;;;;5096721;28;20070;-63
2021/09/07 10:57:37;;;;;;;25.00;19.02;;;23.20;81.10;;;;;;5097150;28;20446;-62
2021/09/07 11:00:13;;;;;;;25.95;19.15;;;23.30;80.40;;;;;;5096441;28;20024;-58
2021/09/07 11:02:43;;;;;;;28.88;19.75;;;23.30;81.20;;;;;;5095397;28;20024;-63
2021/09/07 11:05:36;;;;;;;23.92;18.75;;;23.30;81.00;;;;;;5094505;28;20097;-61
2021/09/07 11:08:06;;;;;;;23.60;18.77;;;23.40;81.30;;;;;;5094863;28;20024;-63
2021/09/07 11:10:33;;;;;;;24.00;18.60;;;23.60;80.90;;;;;;5095280;28;20078;-62
2021/09/07 11:13:13;;;;;;;22.95;19.92;;;23.80;79.60;;;;;;5096014;28;20021;-61
2021/09/07 11:15:40;;;;;;;20.13;17.17;;;23.80;79.00;;;;;;5094990;28;20032;-63
2021/09/07 11:18:10;;;;;;;23.55;18.02;;;23.80;79.50;;;;;;5094917;28;20479;-62
2021/09/07 11:20:44;;;;;;;21.58;17.98;;;24.00;79.70;;;;;;5095037;28;20039;-60
2021/09/07 11:23:14;;;;;;;;;;;24.00;79.60;;;;;;5094473;28;20441;-60
2021/09/07 11:25:45;;;;;;;24.15;17.88;;;23.90;78.90;;;;;;5094044;28;20337;-64
2021/09/07 11:28:13;;;;;;;21.02;17.77;;;23.60;78.70;;;;;;5095080;28;20043;-62
2021/09/07 11:30:41;;;;;;;22.90;17.80;;;23.50;78.70;;;;;;5094515;28;20063;-61
2021/09/07 11:33:15;;;;;;;22.08;18.00;;;23.50;78.60;;;;;;5094459;28;20032;-61
2021/09/07 11:35:56;;;;;;;21.58;17.85;;;23.40;79.00;;;;;;5093544;28;20028;-62
2021/09/07 11:38:24;;;;;;;19.90;15.75;;;23.30;79.20;;;;;;5094191;28;20111;-62
2021/09/07 11:40:51;;;;;;;27.42;18.52;;;23.40;79.00;;;;;;5094307;28;20028;-63
2021/09/07 11:43:33;;;;;;;25.02;18.50;;;23.40;79.20;;;;;;5093525;28;20036;-62
2021/09/07 11:46:15;;;;;;;22.15;19.77;;;23.30;79.40;;;;;;5094017;28;20056;-63
2021/09/07 11:48:50;;;;;;;22.02;18.20;;;23.30;78.30;;;;;;5093971;28;20028;-62
2021/09/07 11:51:28;;;;;;;24.10;18.90;;;23.20;78.10;;;;;;5093720;28;20073;-63
2021/09/07 11:54:01;;;;;;;20.50;17.17;;;23.10;78.40;;;;;;5090244;28;20024;-60
2021/09/07 11:56:32;;;;;;;22.30;17.05;;;23.30;77.90;;;;;;5090112;28;20058;-61
2021/09/07 11:59:17;;;;;;;20.27;17.20;;;23.40;77.20;;;;;;5092375;28;20039;-60
2021/09/07 12:01:48;;;;;;;19.30;16.42;;;23.40;76.60;;;;;;5092124;28;20507;-62
2021/09/07 12:04:17;;;;;;;19.98;16.17;;;23.20;77.70;;;;;;5073327;28;20036;-61
2021/09/07 12:06:47;;;;;;;23.27;18.25;;;23.20;77.80;;;;;;5072426;28;20021;-61
2021/09/07 12:09:13;;;;;;;23.50;17.80;;;23.20;78.10;;;;;;5052398;28;20045;-59
2021/09/07 12:11:39;;;;;;;19.48;15.07;;;23.10;78.00;;;;;;5076737;28;20074;-60
2021/09/07 12:14:09;;;;;;;27.98;19.70;;;23.10;77.40;;;;;;5092380;28;20127;-61
2021/09/07 12:16:36;;;;;;;21.35;16.77;;;23.20;77.50;;;;;;5092255;28;20042;-60
2021/09/07 12:19:21;;;;;;;19.60;15.30;;;23.40;77.90;;;;;;5092311;28;20384;-59
2021/09/07 12:21:46;;;;;;;17.88;13.95;;;23.60;78.30;;;;;;5083674;28;20442;-61
2021/09/07 12:24:15;;;;;;;19.20;14.13;;;23.70;77.10;;;;;;5074825;28;20040;-60
2021/09/07 12:26:42;;;;;;;24.92;16.75;;;23.80;76.30;;;;;;5081237;28;20040;-61
2021/09/07 12:29:17;;;;;;;19.75;15.57;;;23.80;76.10;;;;;;5089080;28;20036;-59
2021/09/07 12:31:44;;;;;;;19.02;14.18;;;23.90;75.10;;;;;;5088597;28;20086;-60
2021/09/07 12:34:18;;;;;;;17.50;13.90;;;23.80;75.90;;;;;;5089448;28;20053;-59